createdAt,value
2022-12-31T00:00:31.248Z,7.25
2022-12-31T00:05:31.186Z,7.12
2022-12-31T00:10:31.182Z,7
2022-12-31T00:15:31.177Z,6.93
2022-12-31T00:20:31.159Z,6.81
2022-12-31T00:25:31.148Z,6.75
2022-12-31T00:30:31.198Z,6.43
2022-12-31T00:35:31.171Z,6.62
2022-12-31T00:40:31.232Z,6.81
2022-12-31T00:45:34.952Z,7
2022-12-31T00:50:31.191Z,6.56
2022-12-31T00:55:31.139Z,6.75
2022-12-31T01:00:31.177Z,6.93
2022-12-31T01:05:31.130Z,6.5
2022-12-31T01:10:31.161Z,6.43
2022-12-31T01:15:31.248Z,6.5
2022-12-31T01:20:31.177Z,6.62
2022-12-31T01:25:31.110Z,6.5
2022-12-31T01:30:31.108Z,6.31
2022-12-31T01:35:31.092Z,6.43
2022-12-31T01:40:31.100Z,6.56
2022-12-31T01:45:31.113Z,7.31
2022-12-31T01:50:31.071Z,7.5
2022-12-31T01:55:31.092Z,7.62
2022-12-31T02:00:31.072Z,7.62
2022-12-31T02:05:31.140Z,7.93
2022-12-31T02:10:31.121Z,8.31
2022-12-31T02:15:31.098Z,8.62
2022-12-31T02:20:31.096Z,8.93
2022-12-31T02:25:31.094Z,9.18
2022-12-31T02:30:31.100Z,9.5
2022-12-31T02:35:31.090Z,9.81
2022-12-31T02:40:31.073Z,9.87
2022-12-31T02:45:31.047Z,10
2022-12-31T02:50:31.018Z,10.06
2022-12-31T02:55:31.040Z,10.12
2022-12-31T03:00:31.076Z,9.93
2022-12-31T03:05:31.009Z,9.43
2022-12-31T03:10:31.005Z,9.62
2022-12-31T03:15:31.007Z,9.62
2022-12-31T03:20:30.994Z,10
2022-12-31T03:25:30.991Z,10
2022-12-31T03:30:30.996Z,9.93
2022-12-31T03:35:30.989Z,9.87
2022-12-31T03:40:30.989Z,9.56
2022-12-31T03:45:31.056Z,9.18
2022-12-31T03:50:30.967Z,8.93
2022-12-31T03:55:30.965Z,8.75
2022-12-31T04:00:30.934Z,8.75
2022-12-31T04:05:30.951Z,8.68
2022-12-31T04:10:30.972Z,8.56
2022-12-31T04:15:30.942Z,8.81
2022-12-31T04:20:30.936Z,8.75
2022-12-31T04:25:30.989Z,9
2022-12-31T04:30:30.926Z,9.5
2022-12-31T04:35:30.943Z,9.37
2022-12-31T04:40:30.925Z,9.68
2022-12-31T04:45:30.947Z,9.56
2022-12-31T04:50:30.921Z,9.25
2022-12-31T04:55:30.917Z,9.18
2022-12-31T05:00:30.933Z,9.5
2022-12-31T05:05:30.907Z,9.56
2022-12-31T05:10:30.887Z,9.56
2022-12-31T05:15:30.873Z,9.37
2022-12-31T05:20:30.882Z,9.68
2022-12-31T05:25:30.885Z,9.5
2022-12-31T05:30:30.921Z,9.56
2022-12-31T05:35:30.857Z,9.43
2022-12-31T05:40:30.865Z,9.37
2022-12-31T05:45:31.408Z,9.31
2022-12-31T05:50:30.881Z,9.25
2022-12-31T05:55:31.065Z,9.06
2022-12-31T06:00:30.869Z,9
2022-12-31T06:05:30.842Z,8.87
2022-12-31T06:10:30.830Z,9
2022-12-31T06:15:30.947Z,8.93
2022-12-31T06:20:30.821Z,8.56
2022-12-31T06:25:30.821Z,9.06
2022-12-31T06:35:30.804Z,8.75
2022-12-31T06:40:30.800Z,9.12
2022-12-31T06:45:30.794Z,9
2022-12-31T06:55:30.797Z,9.31
2022-12-31T07:00:30.875Z,9.18
2022-12-31T07:05:30.777Z,9.5
2022-12-31T07:20:30.741Z,9.75
2022-12-31T07:25:30.771Z,10
2022-12-31T07:35:34.906Z,10.31
2022-12-31T07:40:30.752Z,10.37
2022-12-31T07:45:30.770Z,10.06
2022-12-31T07:50:30.741Z,10.18
2022-12-31T07:55:30.740Z,10.25
2022-12-31T08:00:30.875Z,10.12
2022-12-31T08:05:30.754Z,10.18
2022-12-31T08:10:30.766Z,10.31
2022-12-31T08:15:30.910Z,10.31
2022-12-31T08:20:30.711Z,10.18
2022-12-31T08:25:30.701Z,10.18
2022-12-31T08:30:30.699Z,10.25
2022-12-31T08:35:30.697Z,10.12
2022-12-31T08:40:30.685Z,10.31
2022-12-31T08:45:30.725Z,10.37
2022-12-31T08:50:30.679Z,10.93
2022-12-31T08:55:30.682Z,10.87
2022-12-31T09:00:30.660Z,10.75
2022-12-31T09:05:30.670Z,10.81
2022-12-31T09:10:30.652Z,10.81
2022-12-31T09:15:30.657Z,10.43
2022-12-31T09:20:42.134Z,10.87
2022-12-31T09:25:30.653Z,11.43
2022-12-31T09:30:30.641Z,12.06
2022-12-31T09:35:30.619Z,11.93
2022-12-31T09:40:30.646Z,12.25
2022-12-31T09:45:30.684Z,11.87
2022-12-31T09:50:30.607Z,11.75
2022-12-31T09:55:30.589Z,12
2022-12-31T10:00:30.584Z,12
2022-12-31T10:05:30.585Z,11.93
2022-12-31T10:10:30.713Z,11.93
2022-12-31T10:15:30.592Z,12
2022-12-31T10:20:30.557Z,12.06
2022-12-31T10:25:37.849Z,12.68
2022-12-31T10:30:30.605Z,13.12
2022-12-31T10:35:30.565Z,13.31
2022-12-31T10:40:30.534Z,13.56
2022-12-31T10:45:30.538Z,13.87
2022-12-31T10:50:30.554Z,14.43
2022-12-31T10:55:30.525Z,14.43
2022-12-31T11:00:30.532Z,13.87
2022-12-31T11:05:30.540Z,13.75
2022-12-31T11:10:30.510Z,13.87
2022-12-31T11:15:30.546Z,13.62
2022-12-31T11:20:30.530Z,13.68
2022-12-31T11:25:30.524Z,13.68
2022-12-31T11:30:30.484Z,13.5
2022-12-31T11:35:30.482Z,13.43
2022-12-31T11:40:30.472Z,13.37
2022-12-31T11:45:30.480Z,13.37
2022-12-31T11:50:30.465Z,13.43
2022-12-31T11:55:30.467Z,13.37
2022-12-31T12:00:30.468Z,13.5
2022-12-31T12:05:30.463Z,13.68
2022-12-31T12:10:35.910Z,13.75
2022-12-31T12:15:30.425Z,13.56
2022-12-31T12:20:30.614Z,13.87
2022-12-31T12:25:30.410Z,13.93
2022-12-31T12:30:30.439Z,14
2022-12-31T12:35:30.419Z,14.62
2022-12-31T12:40:33.994Z,15.18
2022-12-31T12:45:30.396Z,15.18
2022-12-31T12:50:30.374Z,14.87
2022-12-31T12:55:30.395Z,14.56
2022-12-31T13:00:30.390Z,14.56
2022-12-31T13:05:30.367Z,14.56
2022-12-31T13:10:30.360Z,14.56
2022-12-31T13:15:30.393Z,14.5
2022-12-31T13:20:30.374Z,14.43
2022-12-31T13:25:30.337Z,14.43
2022-12-31T13:30:30.349Z,14.18
2022-12-31T13:35:30.364Z,14.31
2022-12-31T13:40:30.342Z,13.87
2022-12-31T13:45:30.371Z,13.5
2022-12-31T13:50:30.323Z,13.5
2022-12-31T13:55:30.327Z,13.18
2022-12-31T14:00:30.316Z,13.06
2022-12-31T14:05:30.304Z,13.06
2022-12-31T14:10:30.293Z,12.93
2022-12-31T14:15:30.295Z,12.43
2022-12-31T14:20:30.303Z,12.56
2022-12-31T14:25:30.292Z,12.12
2022-12-31T14:30:30.270Z,11.62
2022-12-31T14:35:30.273Z,11.81
2022-12-31T14:40:30.256Z,11.43
2022-12-31T14:45:30.298Z,11.37
2022-12-31T14:50:30.268Z,11.12
2022-12-31T14:55:30.246Z,10.75
2022-12-31T15:00:30.251Z,10.75
2022-12-31T15:05:30.252Z,10.56
2022-12-31T15:10:30.252Z,10.68
2022-12-31T15:15:30.249Z,9.81
2022-12-31T15:20:30.229Z,9.5
2022-12-31T15:25:33.992Z,9.5
2022-12-31T15:30:30.388Z,9.5
2022-12-31T15:35:30.186Z,9.31
2022-12-31T15:40:30.225Z,8.93
2022-12-31T15:45:30.196Z,9.12
2022-12-31T15:50:30.192Z,9
2022-12-31T15:55:30.240Z,8.87
2022-12-31T16:00:30.171Z,8.75
2022-12-31T16:05:30.182Z,8.43
2022-12-31T16:10:30.192Z,8.06
2022-12-31T16:15:30.225Z,8.18
2022-12-31T16:20:30.156Z,8.06
2022-12-31T16:25:31.800Z,7.56
2022-12-31T16:30:30.163Z,7.87
2022-12-31T16:35:30.152Z,7.87
2022-12-31T16:40:30.157Z,7.62
2022-12-31T16:45:30.159Z,7.56
2022-12-31T16:50:30.173Z,7.5
2022-12-31T16:55:30.131Z,7.43
2022-12-31T17:00:30.134Z,7.31
2022-12-31T17:05:30.125Z,7.12
2022-12-31T17:10:30.117Z,7.06
2022-12-31T17:15:30.097Z,7.18
2022-12-31T17:20:30.109Z,7.12
2022-12-31T17:25:30.126Z,7.06
2022-12-31T17:30:30.091Z,7
2022-12-31T17:35:30.133Z,7.18
2022-12-31T17:40:54.516Z,7.06
2022-12-31T17:45:30.079Z,6.93
2022-12-31T17:50:30.097Z,7.12
2022-12-31T17:55:30.088Z,6.93
2022-12-31T18:00:30.131Z,6.75
2022-12-31T18:05:30.052Z,6.75
2022-12-31T18:10:30.053Z,6.68
2022-12-31T18:15:30.060Z,6.56
2022-12-31T18:20:30.075Z,6.5
2022-12-31T18:25:30.108Z,6.56
2022-12-31T18:30:30.075Z,6.5
2022-12-31T18:40:30.039Z,6.62
2022-12-31T18:45:30.050Z,6.56
2022-12-31T18:50:30.057Z,6.43
2022-12-31T18:55:30.011Z,6.43
2022-12-31T19:00:30.022Z,6.5
2022-12-31T19:05:30.027Z,6.37
2022-12-31T19:10:30.039Z,6.37
2022-12-31T19:15:30.043Z,6.37
2022-12-31T19:20:30.033Z,6.31
2022-12-31T19:25:29.994Z,6.25
2022-12-31T19:30:30.025Z,6
2022-12-31T19:35:30.008Z,6.62
2022-12-31T19:40:29.997Z,7.06
2022-12-31T19:45:30.055Z,6.93
2022-12-31T19:50:29.979Z,6.93
2022-12-31T19:55:29.988Z,6.93
2022-12-31T20:00:30.127Z,7.12
2022-12-31T20:05:29.978Z,6.75
2022-12-31T20:10:29.958Z,7.06
2022-12-31T20:15:30.067Z,7.12
2022-12-31T20:20:29.962Z,7.62
2022-12-31T20:25:29.984Z,7.5
2022-12-31T20:30:29.980Z,7.43
2022-12-31T20:35:29.987Z,8.06
2022-12-31T20:40:29.948Z,8.81
2022-12-31T20:45:29.928Z,8.87
2022-12-31T20:50:29.974Z,8.75
2022-12-31T20:55:29.922Z,9.12
2022-12-31T21:00:29.934Z,9.18
2022-12-31T21:05:30.120Z,9.56
2022-12-31T21:10:29.944Z,8.5
2022-12-31T21:15:29.969Z,8.06
2022-12-31T21:20:29.900Z,7.62
2022-12-31T21:25:29.887Z,7.31
2022-12-31T21:30:29.898Z,7.12
2022-12-31T21:35:51.736Z,6.93
2022-12-31T21:40:29.908Z,6.62
2022-12-31T21:55:29.873Z,6.06
2022-12-31T22:15:29.855Z,5.93
2022-12-31T22:20:29.885Z,6.06
2022-12-31T22:25:29.868Z,6.18
2022-12-31T22:30:29.864Z,6.37
2022-12-31T22:35:29.872Z,6.12
2022-12-31T22:40:29.843Z,5.81
2022-12-31T22:45:29.854Z,5.68
2022-12-31T22:50:29.841Z,5.5
2022-12-31T22:55:29.844Z,5.5
2022-12-31T23:00:29.891Z,5.56
2022-12-31T23:05:29.833Z,5.68
2022-12-31T23:10:29.835Z,5.5
2022-12-31T23:15:29.839Z,5.93
2022-12-31T23:20:29.824Z,5.25
2022-12-31T23:25:29.797Z,5.5
2022-12-31T23:30:29.822Z,5.5
2022-12-31T23:35:29.894Z,5.31
2022-12-31T23:40:29.814Z,5.25
2022-12-31T23:45:33.210Z,5.31
2022-12-31T23:50:29.793Z,5.18
2022-12-31T23:55:29.812Z,6.25
